Time;durP1;ratioP1;P1;durP2;ratioP2;P2;SDS_P1;SDS_P2;PMS_P1;PMS_P2;Temp;Humidity;BMP_temperature;BMP_pressure;BME280_temperature;BME280_humidity;BME280_pressure;Samples;Min_cycle;Max_cycle;Signal;HPM_P1;HPM_P2
2022/03/01 00:00:38;;;;;;;6.43;5.83;;;;;;;5.17;61.12;102545.63;2098180;28;20184;-65
2022/03/01 00:01:39;;;;;;;7.35;6.28;;;;;;;5.61;61.28;102618.78;2097694;28;20197;-65
2022/03/01 00:02:39;;;;;;;7.87;6.10;;;;;;;5.63;61.60;102619.22;2098338;28;20180;-65
2022/03/01 00:03:40;;;;;;;6.93;6.23;;;;;;;5.48;60.51;102597.97;2098004;28;20212;-65
2022/03/01 00:04:40;;;;;;;7.27;5.90;;;;;;;5.18;61.11;102543.69;2098350;28;20204;-65
2022/03/01 00:05:41;;;;;;;6.63;5.93;;;;;;;5.57;60.77;102606.88;2098018;28;20578;-66
2022/03/01 00:06:41;;;;;;;6.20;5.60;;;;;;;5.67;61.11;102616.56;2098318;28;20267;-66
2022/03/01 00:07:42;;;;;;;6.43;5.80;;;;;;;5.61;60.40;102606.97;2098151;28;20192;-65
2022/03/01 00:08:42;;;;;;;7.30;6.07;;;;;;;5.70;61.02;102622.16;2098253;28;20766;-65
2022/03/01 00:09:43;;;;;;;7.67;6.30;;;;;;;5.54;60.89;102596.56;2097963;28;20181;-66
2022/03/01 00:10:43;;;;;;;8.37;5.70;;;;;;;5.68;60.70;102618.16;2098119;28;20195;-65
2022/03/01 00:11:44;;;;;;;7.00;6.23;;;;;;;5.58;61.36;102594.72;2097530;28;20242;-66
2022/03/01 00:12:45;;;;;;;7.93;5.73;;;;;;;5.66;60.77;102614.97;2098350;28;20659;-65
2022/03/01 00:13:45;;;;;;;7.10;5.67;;;;;;;5.66;60.89;102614.97;2089294;28;20182;-65
2022/03/01 00:14:46;;;;;;;6.63;5.40;;;;;;;5.04;60.37;102521.28;2089289;28;20187;-66
2022/03/01 00:15:46;;;;;;;7.23;5.90;;;;;;;5.62;61.61;102614.88;2098040;28;20231;-65
2022/03/01 00:16:47;;;;;;;7.07;6.00;;;;;;;4.92;61.74;102505.63;2098241;28;20226;-65
2022/03/01 00:17:48;;;;;;;8.23;6.30;;;;;;;5.66;60.66;102609.47;2098027;28;20197;-66
2022/03/01 00:18:48;;;;;;;7.67;6.43;;;;;;;5.62;61.04;102616.81;2098267;28;20269;-65
2022/03/01 00:19:49;;;;;;;8.33;6.30;;;;;;;5.15;60.87;102558.13;2097571;28;20682;-65
2022/03/01 00:20:49;;;;;;;6.77;6.00;;;;;;;5.64;61.31;102609.81;2098193;28;20666;-65
2022/03/01 00:21:50;;;;;;;7.00;5.73;;;;;;;5.64;61.31;102609.81;2097651;28;20669;-65
2022/03/01 00:22:50;;;;;;;7.53;6.43;;;;;;;5.14;60.98;102538.06;2098188;28;20217;-66
2022/03/01 00:23:51;;;;;;;6.73;6.03;;;;;;;5.60;61.01;102605.38;2097953;28;20707;-65
2022/03/01 00:24:52;;;;;;;6.33;5.73;;;;;;;5.60;61.50;102608.13;2098157;28;20182;-65
2022/03/01 00:25:52;;;;;;;6.33;5.67;;;;;;;5.62;61.13;102612.13;2097927;28;20272;-65
2022/03/01 00:26:53;;;;;;;6.47;5.87;;;;;;;5.64;61.10;102601.56;2098104;28;20182;-66
2022/03/01 00:27:54;;;;;;;7.87;6.43;;;;;;;5.63;60.70;102605.47;2098084;28;20271;-65
2022/03/01 00:28:54;;;;;;;6.77;6.03;;;;;;;5.63;60.40;102604.66;2098217;28;20193;-66
2022/03/01 00:29:55;;;;;;;6.43;5.50;;;;;;;5.62;60.41;102600.31;2097638;28;20194;-65
2022/03/01 00:30:56;;;;;;;7.87;5.93;;;;;;;5.36;61.18;102561.47;2098128;28;20326;-65
2022/03/01 00:31:57;;;;;;;7.80;6.45;;;;;;;5.61;60.81;102601.47;2097547;28;20182;-65
2022/03/01 00:32:57;;;;;;;6.70;5.93;;;;;;;5.59;60.63;102606.53;2098129;28;20689;-66
2022/03/01 00:33:58;;;;;;;8.30;6.13;;;;;;;5.58;60.46;102605.72;2097874;28;20637;-65
2022/03/01 00:34:58;;;;;;;6.30;5.70;;;;;;;5.59;60.72;102615.56;2098266;28;20277;-65
2022/03/01 00:35:59;;;;;;;7.20;6.10;;;;;;;5.60;61.30;102603.41;2097883;28;20667;-65
2022/03/01 00:37:00;;;;;;;6.57;5.88;;;;;;;5.65;61.05;102596.88;2098096;28;20182;-65
2022/03/01 00:38:00;;;;;;;6.83;6.13;;;;;;;5.20;60.71;102544.13;2097849;28;20189;-65
2022/03/01 00:39:01;;;;;;;6.73;5.87;;;;;;;5.61;61.04;102599.53;2098101;28;20193;-65
2022/03/01 00:40:04;;;;;;;6.97;5.63;;;;;;;5.30;61.08;102554.63;2097589;28;20187;-65
2022/03/01 00:41:05;;;;;;;6.60;5.70;;;;;;;5.64;60.57;102592.50;2097874;28;20256;-65
2022/03/01 00:42:05;;;;;;;7.10;6.07;;;;;;;4.93;60.89;102498.22;2097168;28;20325;-65
2022/03/01 00:43:06;;;;;;;6.90;5.70;;;;;;;5.61;60.15;102604.22;2097862;28;20195;-65
2022/03/01 00:44:07;;;;;;;6.53;5.70;;;;;;;5.61;60.96;102598.72;2088867;28;20218;-65
2022/03/01 00:45:08;;;;;;;7.13;5.80;;;;;;;5.27;60.59;102547.88;2087431;28;20266;-65
2022/03/01 00:46:09;;;;;;;6.43;5.80;;;;;;;4.97;60.25;102497.16;2094728;28;20560;-66
2022/03/01 00:47:09;;;;;;;6.67;5.80;;;;;;;5.62;60.34;102600.31;2097957;28;20183;-65
2022/03/01 00:48:10;;;;;;;6.13;5.53;;;;;;;5.59;60.23;102588.06;2097695;28;20469;-65
2022/03/01 00:49:10;;;;;;;6.67;5.83;;;;;;;4.57;60.48;102435.94;2097953;28;20200;-65
2022/03/01 00:50:11;;;;;;;6.80;6.10;;;;;;;5.18;60.29;102527.97;2097612;28;20191;-65
2022/03/01 00:51:12;;;;;;;7.20;6.00;;;;;;;5.60;60.52;102597.91;2097435;28;20413;-65
2022/03/01 00:52:12;;;;;;;8.10;6.47;;;;;;;5.05;60.63;102518.19;2097795;28;20697;-65
2022/03/01 00:53:13;;;;;;;6.80;5.77;;;;;;;5.56;60.95;102591.53;2098098;28;20268;-65
2022/03/01 00:54:13;;;;;;;7.37;6.00;;;;;;;5.57;61.43;102584.88;2097406;28;20184;-66
2022/03/01 00:55:14;;;;;;;6.60;5.90;;;;;;;5.59;61.15;102590.03;2097616;28;20182;-66
2022/03/01 00:56:15;;;;;;;6.50;5.60;;;;;;;5.60;60.31;102586.91;2097703;28;20632;-65
2022/03/01 00:57:15;;;;;;;6.70;5.67;;;;;;;4.44;60.31;102409.69;2097987;28;20212;-65
2022/03/01 00:58:16;;;;;;;7.13;6.40;;;;;;;5.60;61.14;102594.38;2096637;28;20179;-65
2022/03/01 00:59:16;;;;;;;6.80;6.00;;;;;;;5.61;60.32;102588.53;2096121;28;20189;-65
2022/03/01 01:00:17;;;;;;;7.87;6.37;;;;;;;5.58;59.96;102591.16;2097372;28;20180;-65
2022/03/01 01:01:18;;;;;;;7.10;6.20;;;;;;;5.55;60.67;102589.13;2088414;28;20632;-65
2022/03/01 01:02:19;;;;;;;7.03;5.80;;;;;;;5.59;60.96;102596.31;2088761;28;20285;-65
2022/03/01 01:03:19;;;;;;;7.57;6.40;;;;;;;5.51;60.80;102591.78;2097982;28;20191;-65
2022/03/01 01:04:20;;;;;;;7.20;6.37;;;;;;;5.25;61.04;102552.94;2097485;28;20211;-65
2022/03/01 01:05:20;;;;;;;6.60;5.90;;;;;;;5.50;61.24;102592.94;2097842;28;20461;-65
2022/03/01 01:07:40;;;;;;;6.93;5.97;;;;;;;5.18;61.47;102535.44;2097785;28;20176;-65
2022/03/01 01:08:41;;;;;;;8.47;6.13;;;;;;;5.49;61.49;102594.06;2097749;28;20267;-65
2022/03/01 01:09:41;;;;;;;8.70;6.37;;;;;;;5.58;61.11;102596.66;2097512;28;20271;-65
2022/03/01 01:10:42;;;;;;;6.57;5.93;;;;;;;5.55;61.02;102595.41;2097748;28;20192;-65
2022/03/01 01:11:43;;;;;;;6.50;5.90;;;;;;;5.57;60.94;102595.88;2097105;28;20183;-65
2022/03/01 01:12:44;;;;;;;7.53;6.53;;;;;;;5.56;61.11;102613.53;2097802;28;20181;-65
2022/03/01 01:13:45;;;;;;;7.13;6.13;;;;;;;4.65;61.27;102446.00;2097605;28;20670;-65
2022/03/01 01:14:47;;;;;;;6.80;6.10;;;;;;;5.02;61.50;102502.41;2097772;28;20427;-65
2022/03/01 01:15:47;;;;;;;6.80;6.10;;;;;;;5.57;61.22;102595.88;2097414;28;20271;-65
2022/03/01 01:16:48;;;;;;;6.73;5.97;;;;;;;5.57;61.21;102597.81;2097780;28;20187;-65
2022/03/01 01:17:49;;;;;;;7.40;6.10;;;;;;;5.49;61.33;102583.06;2097707;28;20199;-65
2022/03/01 01:18:49;;;;;;;6.50;5.43;;;;;;;5.51;61.63;102599.22;2097785;28;20197;-65
2022/03/01 01:19:50;;;;;;;7.63;6.17;;;;;;;5.59;60.96;102601.81;2097108;28;20214;-65
2022/03/01 01:20:52;;;;;;;6.90;5.90;;;;;;;5.56;61.13;102602.53;2097695;28;20181;-66
2022/03/01 01:23:11;;;;;;;7.75;5.68;;;;;;;5.54;60.74;102593.03;2086996;28;20247;-65
2022/03/01 01:24:12;;;;;;;6.17;5.57;;;;;;;5.43;61.44;102594.69;2089341;28;20204;-65
2022/03/01 01:25:18;;;;;;;8.13;6.03;;;;;;;5.43;62.13;102591.94;2089449;28;20196;-65
2022/03/01 01:26:18;;;;;;;6.78;6.03;;;;;;;5.44;62.04;102580.56;2089196;28;20219;-65
2022/03/01 01:27:19;;;;;;;7.37;5.70;;;;;;;5.52;61.56;102598.88;2088850;28;20197;-65
2022/03/01 01:28:19;;;;;;;5.90;5.27;;;;;;;5.54;61.77;102596.56;2088699;28;20204;-65
2022/03/01 01:29:20;;;;;;;6.63;5.73;;;;;;;5.55;61.56;102586.38;2087361;28;20227;-65
2022/03/01 01:30:24;;;;;;;6.63;5.93;;;;;;;5.54;61.43;102590.28;2088329;28;20259;-65
2022/03/01 01:31:25;;;;;;;6.43;5.80;;;;;;;5.58;61.57;102593.91;2096362;28;20822;-65
2022/03/01 01:32:25;;;;;;;7.33;6.23;;;;;;;5.13;61.04;102519.97;2088675;28;20200;-65
2022/03/01 01:33:26;;;;;;;8.33;6.10;;;;;;;5.61;60.98;102594.03;2088723;28;20189;-65
2022/03/01 01:34:26;;;;;;;7.03;5.53;;;;;;;5.52;60.83;102581.56;2097554;28;20198;-66
2022/03/01 01:35:29;;;;;;;7.30;5.87;;;;;;;5.58;61.38;102583.72;2088655;28;20244;-65
2022/03/01 01:36:30;;;;;;;6.82;5.93;;;;;;;5.53;61.50;102575.72;2088989;28;20628;-65
2022/03/01 01:37:31;;;;;;;7.20;6.40;;;;;;;5.60;61.39;102597.13;2097507;28;20189;-65
2022/03/01 01:38:31;;;;;;;6.70;5.90;;;;;;;5.56;61.27;102586.03;2097588;28;20490;-66
2022/03/01 01:39:32;;;;;;;7.43;6.10;;;;;;;5.58;61.42;102580.97;2097598;28;20737;-65
2022/03/01 01:40:34;;;;;;;6.80;6.10;;;;;;;5.11;61.31;102518.72;2097216;28;20220;-65
2022/03/01 01:41:35;;;;;;;6.88;5.80;;;;;;;5.12;61.22;102521.13;2096843;28;20323;-65
2022/03/01 01:42:35;;;;;;;6.70;5.87;;;;;;;5.61;60.69;102584.97;2097606;28;20173;-65
2022/03/01 01:43:36;;;;;;;7.00;6.30;;;;;;;5.52;60.97;102570.56;2097263;28;20241;-65
2022/03/01 01:44:36;;;;;;;6.63;5.67;;;;;;;5.56;61.32;102583.28;2088583;28;20184;-65
2022/03/01 01:45:37;;;;;;;7.00;5.53;;;;;;;5.52;61.43;102581.56;2088575;28;20187;-65
2022/03/01 01:46:38;;;;;;;7.23;6.40;;;;;;;5.48;61.53;102586.97;2097534;28;20278;-65
2022/03/01 01:47:39;;;;;;;7.47;6.20;;;;;;;4.53;61.98;102443.31;2097403;28;20212;-65
2022/03/01 01:48:39;;;;;;;6.40;5.80;;;;;;;5.26;62.45;102559.22;2097434;28;20245;-65
2022/03/01 01:49:40;;;;;;;6.87;5.97;;;;;;;5.46;62.13;102580.22;2097270;28;20187;-65
2022/03/01 01:50:59;;;;;;;7.50;5.77;;;;;;;4.89;61.90;102492.63;2097537;28;20188;-65
2022/03/01 01:52:00;;;;;;;7.47;5.82;;;;;;;5.36;62.14;102561.47;2096905;28;20265;-65
2022/03/01 01:53:00;;;;;;;7.23;5.70;;;;;;;4.12;61.65;102365.97;2097551;28;20188;-65
2022/03/01 01:54:01;;;;;;;6.60;5.90;;;;;;;5.41;62.15;102573.03;2097370;28;20185;-65
2022/03/01 01:55:03;;;;;;;7.03;6.00;;;;;;;5.38;62.17;102573.72;2097529;28;20271;-65
2022/03/01 01:56:03;;;;;;;8.32;6.57;;;;;;;5.34;61.86;102574.78;2097259;28;20246;-65
2022/03/01 01:57:19;;;;;;;6.53;5.90;;;;;;;5.33;62.79;102575.94;2097608;28;20196;-65
2022/03/01 01:58:20;;;;;;;8.32;5.85;;;;;;;5.26;62.39;102576.53;2095591;28;20237;-65
2022/03/01 01:59:20;;;;;;;8.97;6.63;;;;;;;5.18;62.40;102577.47;2087280;28;20188;-65
2022/03/01 02:00:21;;;;;;;7.20;6.30;;;;;;;5.14;62.31;102573.78;2087973;28;20275;-65
2022/03/01 02:01:22;;;;;;;7.77;6.67;;;;;;;5.11;63.17;102581.94;2097050;28;20266;-65
2022/03/01 02:02:25;;;;;;;8.17;6.47;;;;;;;5.17;63.34;102580.53;2097342;28;20184;-65
2022/03/01 02:03:25;;;;;;;7.43;6.15;;;;;;;5.13;63.62;102574.94;2097503;28;20249;-65
2022/03/01 02:04:28;;;;;;;8.50;6.63;;;;;;;4.89;63.18;102544.00;2097314;28;20295;-65
2022/03/01 02:05:29;;;;;;;7.10;6.13;;;;;;;4.59;63.44;102512.50;2097314;28;20176;-65
2022/03/01 02:06:29;;;;;;;7.07;6.38;;;;;;;4.95;63.14;102567.34;2097400;28;20185;-65
2022/03/01 02:07:30;;;;;;;7.67;6.70;;;;;;;4.97;63.57;102578.78;2097379;28;20189;-65
2022/03/01 02:08:32;;;;;;;7.00;6.30;;;;;;;4.93;63.49;102575.91;2097491;28;20204;-66
2022/03/01 02:09:34;;;;;;;6.90;6.20;;;;;;;4.22;63.75;102478.00;2097368;28;20211;-65
2022/03/01 02:10:34;;;;;;;6.95;5.97;;;;;;;4.86;64.06;102570.22;2097066;28;20210;-66
2022/03/01 02:11:35;;;;;;;7.30;6.50;;;;;;;3.81;64.04;102421.47;2096750;28;20178;-65
2022/03/01 02:12:35;;;;;;;8.90;6.63;;;;;;;4.85;63.71;102573.31;2097311;28;20199;-66
2022/03/01 02:13:36;;;;;;;7.77;6.20;;;;;;;4.64;63.62;102539.72;2097374;28;20651;-65
2022/03/01 02:14:38;;;;;;;7.40;6.53;;;;;;;4.85;63.50;102574.13;2097429;28;20317;-65
2022/03/01 02:15:39;;;;;;;8.20;6.60;;;;;;;4.77;63.84;102564.06;2097355;28;20270;-65
2022/03/01 02:16:41;;;;;;;7.60;6.37;;;;;;;4.20;63.90;102485.81;2097266;28;20189;-66
2022/03/01 02:17:42;;;;;;;7.22;6.47;;;;;;;4.76;63.83;102569.88;2097204;28;20230;-66
2022/03/01 02:18:42;;;;;;;6.30;5.70;;;;;;;3.40;63.83;102355.91;2097585;28;20190;-65
2022/03/01 02:19:50;;;;;;;6.70;6.00;;;;;;;4.70;64.24;102566.59;2096914;28;20684;-65
2022/03/01 02:20:50;;;;;;;7.38;6.68;;;;;;;4.66;63.89;102564.91;2097400;28;20673;-65
2022/03/01 02:21:56;;;;;;;6.93;6.17;;;;;;;4.61;64.04;102570.63;2096673;28;20569;-65
2022/03/01 02:22:56;;;;;;;7.07;6.32;;;;;;;4.54;64.48;102560.22;2094486;28;20241;-65
2022/03/01 02:23:57;;;;;;;7.20;6.50;;;;;;;4.12;64.56;102506.72;2097127;28;20636;-65
2022/03/01 02:24:58;;;;;;;7.17;6.13;;;;;;;4.51;64.99;102558.16;2097421;28;20180;-65
2022/03/01 02:25:58;;;;;;;7.13;6.40;;;;;;;4.52;64.88;102564.44;2097127;28;20661;-65
2022/03/01 02:27:02;;;;;;;7.00;6.10;;;;;;;4.51;64.50;102566.38;2088367;28;20196;-65
2022/03/01 02:28:04;;;;;;;7.90;6.68;;;;;;;3.61;64.40;102430.59;2088707;28;20617;-65
2022/03/01 02:29:04;;;;;;;8.32;6.75;;;;;;;4.46;64.62;102574.06;2097345;28;20189;-65
2022/03/01 02:30:07;;;;;;;7.13;6.43;;;;;;;4.45;65.74;102565.03;2087931;28;20196;-65
2022/03/01 02:31:08;;;;;;;7.75;6.95;;;;;;;4.49;65.55;102565.13;2088560;28;20184;-66
2022/03/01 02:32:09;;;;;;;8.00;6.90;;;;;;;4.50;64.91;102572.22;2097138;28;20216;-65
2022/03/01 02:33:10;;;;;;;7.80;6.85;;;;;;;4.47;65.01;102567.44;2097162;28;20184;-65
2022/03/01 02:34:10;;;;;;;8.10;6.80;;;;;;;4.44;65.17;102565.34;2097132;28;20672;-65
2022/03/01 02:35:14;;;;;;;8.33;7.30;;;;;;;4.44;65.68;102560.69;2097300;28;20262;-65
2022/03/01 02:36:14;;;;;;;8.23;6.60;;;;;;;4.45;65.10;102567.75;2097235;28;20192;-65
2022/03/01 02:37:15;;;;;;;8.17;7.27;;;;;;;4.22;65.16;102565.81;2097328;28;20193;-65
2022/03/01 02:38:16;;;;;;;7.60;6.77;;;;;;;3.55;64.92;102442.91;2097014;28;20772;-65
2022/03/01 02:39:17;;;;;;;7.80;7.00;;;;;;;4.29;65.11;102544.91;2097495;28;20188;-65
2022/03/01 02:40:19;;;;;;;8.68;7.50;;;;;;;4.35;65.16;102573.72;2087709;28;20197;-65
2022/03/01 02:41:19;;;;;;;7.88;6.93;;;;;;;4.35;65.22;102575.66;2087922;28;20285;-65
2022/03/01 02:42:21;;;;;;;8.33;7.37;;;;;;;4.38;65.38;102566.75;2088125;28;20192;-66
2022/03/01 02:43:22;;;;;;;9.32;7.90;;;;;;;3.79;65.16;102470.34;2088526;28;20188;-65
2022/03/01 02:44:22;;;;;;;7.83;7.03;;;;;;;4.35;65.25;102567.41;2088097;28;20303;-65
2022/03/01 02:45:23;;;;;;;7.70;6.90;;;;;;;4.32;65.17;102570.84;2088364;28;20578;-65
2022/03/01 02:46:24;;;;;;;8.93;7.50;;;;;;;4.29;65.55;102571.53;2097207;28;20197;-65
2022/03/01 02:47:24;;;;;;;7.83;7.03;;;;;;;4.21;65.47;102566.97;2097291;28;20195;-65
2022/03/01 02:48:25;;;;;;;8.37;7.50;;;;;;;4.26;65.26;102567.53;2091786;28;20193;-65
2022/03/01 02:49:25;;;;;;;8.27;7.47;;;;;;;3.27;65.87;102406.34;2096456;28;20643;-65
2022/03/01 02:50:26;;;;;;;8.53;7.63;;;;;;;3.53;65.58;102464.38;2096944;28;20198;-65
2022/03/01 02:51:27;;;;;;;9.20;7.70;;;;;;;4.23;65.43;102570.97;2096745;28;20293;-65
2022/03/01 02:52:28;;;;;;;8.60;7.70;;;;;;;4.19;65.68;102566.50;2097195;28;20216;-65
2022/03/01 02:53:28;;;;;;;9.53;7.70;;;;;;;4.18;65.83;102564.91;2097302;28;20473;-65
2022/03/01 02:54:29;;;;;;;8.57;7.47;;;;;;;4.17;65.46;102558.63;2097130;28;20184;-65
2022/03/01 02:55:30;;;;;;;8.07;7.27;;;;;;;3.62;65.55;102480.72;2097011;28;20254;-65
2022/03/01 02:56:30;;;;;;;8.50;7.40;;;;;;;4.15;65.66;102560.91;2097126;28;20214;-65
2022/03/01 02:57:31;;;;;;;8.67;7.73;;;;;;;3.85;65.27;102509.34;2096968;28;20735;-65
2022/03/01 02:58:32;;;;;;;9.20;7.47;;;;;;;4.15;65.86;102562.88;2097208;28;20657;-65
2022/03/01 02:59:33;;;;;;;8.67;7.80;;;;;;;4.07;65.71;102556.34;2097073;28;20623;-65
2022/03/01 03:00:34;;;;;;;10.05;8.23;;;;;;;4.12;65.53;102564.34;2096834;28;20176;-65
2022/03/01 03:01:34;;;;;;;8.70;7.77;;;;;;;4.11;65.98;102562.72;2096588;28;20194;-65
2022/03/01 03:02:35;;;;;;;8.93;8.03;;;;;;;4.11;65.92;102557.22;2097161;28;20193;-66
2022/03/01 03:03:35;;;;;;;10.40;8.13;;;;;;;4.09;65.68;102555.97;2096970;28;20180;-65
2022/03/01 03:04:36;;;;;;;10.43;7.70;;;;;;;4.07;65.68;102550.84;2097216;28;20216;-65
2022/03/01 03:05:37;;;;;;;8.80;7.90;;;;;;;3.92;65.50;102532.31;2097348;28;20190;-65
2022/03/01 03:06:37;;;;;;;8.17;7.33;;;;;;;3.17;66.11;102416.91;2097175;28;20237;-65
2022/03/01 03:07:38;;;;;;;8.47;7.57;;;;;;;3.99;66.26;102554.50;2097115;28;20184;-66
2022/03/01 03:08:39;;;;;;;8.67;7.60;;;;;;;4.00;66.24;102555.31;2097218;28;20669;-65
2022/03/01 03:09:40;;;;;;;9.85;8.00;;;;;;;3.58;66.53;102486.09;2087894;28;20199;-65
2022/03/01 03:10:40;;;;;;;9.03;8.13;;;;;;;4.02;66.06;102558.50;2088133;28;20770;-65
2022/03/01 03:11:41;;;;;;;11.70;7.97;;;;;;;4.01;66.33;102537.69;2096557;28;20210;-65
2022/03/01 03:12:43;;;;;;;8.73;7.83;;;;;;;4.07;65.96;102556.34;2088355;28;20279;-65
2022/03/01 03:13:44;;;;;;;10.98;8.50;;;;;;;4.06;65.76;102551.19;2088217;28;20187;-65
2022/03/01 03:14:45;;;;;;;9.27;7.88;;;;;;;4.08;65.96;102551.63;2097148;28;20271;-65
2022/03/01 03:15:47;;;;;;;10.73;7.80;;;;;;;4.09;66.41;102551.28;2088063;28;20197;-65
2022/03/01 03:16:47;;;;;;;9.15;7.65;;;;;;;3.41;66.04;102450.66;2088457;28;20576;-65
2022/03/01 03:17:49;;;;;;;8.60;7.70;;;;;;;3.72;65.80;102502.22;2097446;28;20194;-65
2022/03/01 03:18:49;;;;;;;8.55;7.57;;;;;;;4.05;65.99;102555.06;2098626;28;20188;-65
2022/03/01 03:19:50;;;;;;;8.13;7.33;;;;;;;2.82;65.77;102369.16;2097899;28;20197;-65
2022/03/01 03:20:50;;;;;;;9.53;8.23;;;;;;;3.83;66.48;102528.06;2098633;28;20184;-65
2022/03/01 03:21:51;;;;;;;11.17;8.40;;;;;;;3.99;66.23;102557.22;2097963;28;20212;-65
2022/03/01 03:22:51;;;;;;;8.87;7.97;;;;;;;3.87;66.46;102546.25;2098586;28;20559;-65
2022/03/01 03:23:52;;;;;;;8.67;7.87;;;;;;;3.84;66.19;102535.16;2098383;28;20196;-65
2022/03/01 03:24:53;;;;;;;9.47;8.20;;;;;;;3.89;65.59;102549.44;2098595;28;20215;-65
2022/03/01 03:25:54;;;;;;;10.03;8.33;;;;;;;3.73;66.06;102528.50;2098461;28;20245;-65
2022/03/01 03:26:55;;;;;;;9.15;8.10;;;;;;;3.86;66.46;102541.09;2089646;28;20228;-65
2022/03/01 03:27:55;;;;;;;9.63;8.27;;;;;;;3.85;66.06;102542.25;2089600;28;20190;-65
2022/03/01 03:28:56;;;;;;;9.20;8.13;;;;;;;3.84;66.35;102546.13;2098555;28;20674;-65
2022/03/01 03:29:57;;;;;;;8.38;7.43;;;;;;;3.75;66.15;102531.72;2098335;28;20341;-66
2022/03/01 03:30:57;;;;;;;7.73;6.80;;;;;;;3.60;65.79;102507.69;2098573;28;20317;-65
2022/03/01 03:31:58;;;;;;;8.50;7.60;;;;;;;3.80;66.33;102537.75;2097828;28;20682;-65
2022/03/01 03:32:59;;;;;;;10.57;7.70;;;;;;;3.85;65.59;102539.50;2098652;28;20232;-65
2022/03/01 03:33:59;;;;;;;7.60;6.80;;;;;;;3.83;65.39;102528.06;2098331;28;20191;-65
2022/03/01 03:35:00;;;;;;;7.67;6.87;;;;;;;3.85;64.72;102540.28;2089582;28;20198;-65
2022/03/01 03:36:01;;;;;;;7.78;6.78;;;;;;;3.81;64.60;102535.84;2089619;28;20728;-65
2022/03/01 03:37:02;;;;;;;8.13;6.93;;;;;;;3.76;64.85;102530.56;2098540;28;20570;-65
2022/03/01 03:38:03;;;;;;;8.87;7.57;;;;;;;3.75;65.49;102531.72;2098230;28;20197;-65
2022/03/01 03:39:06;;;;;;;7.82;6.97;;;;;;;3.26;65.36;102454.06;2098554;28;20190;-65
2022/03/01 03:40:07;;;;;;;9.75;7.07;;;;;;;3.67;65.44;102530.69;2098025;28;20576;-65
2022/03/01 03:41:07;;;;;;;10.48;7.25;;;;;;;3.71;65.43;102525.31;2098298;28;20253;-65
2022/03/01 03:42:08;;;;;;;7.13;6.43;;;;;;;3.63;65.33;102531.69;2098021;28;20265;-65
2022/03/01 03:43:08;;;;;;;8.50;6.97;;;;;;;2.72;64.69;102366.84;2098665;28;20185;-65
2022/03/01 03:44:09;;;;;;;7.90;6.30;;;;;;;3.21;64.95;102454.28;2098280;28;20231;-65
2022/03/01 03:45:12;;;;;;;8.00;6.50;;;;;;;3.62;65.13;102532.81;2098523;28;20188;-65
2022/03/01 03:46:12;;;;;;;9.13;7.90;;;;;;;3.59;65.26;102530.78;2089360;28;20200;-65
2022/03/01 03:47:13;;;;;;;8.80;7.90;;;;;;;3.54;65.38;102525.50;2089740;28;20273;-66
2022/03/01 03:48:14;;;;;;;10.83;7.67;;;;;;;3.54;65.28;102531.00;2094604;28;20724;-65
2022/03/01 03:49:14;;;;;;;9.87;8.73;;;;;;;2.71;65.25;102430.91;2096239;28;20220;-65
2022/03/01 03:50:15;;;;;;;8.80;7.90;;;;;;;3.19;66.18;102481.19;2097921;28;20671;-65
2022/03/01 03:51:16;;;;;;;8.97;8.07;;;;;;;3.23;65.86;102492.31;2098034;28;20588;-65
2022/03/01 03:52:16;;;;;;;10.20;9.13;;;;;;;2.79;65.90;102413.63;2098307;28;20184;-65
2022/03/01 03:53:17;;;;;;;15.13;13.00;;;;;;;2.49;65.69;102362.88;2098481;28;20181;-65
2022/03/01 03:54:18;;;;;;;14.13;12.63;;;;;;;3.44;66.46;102532.19;2098253;28;20173;-65
2022/03/01 03:55:18;;;;;;;15.13;12.37;;;;;;;3.39;66.40;102535.16;2098534;28;20251;-65
2022/03/01 03:56:19;;;;;;;15.17;12.93;;;;;;;3.27;66.79;102523.34;2098256;28;20872;-65
2022/03/01 03:57:19;;;;;;;15.70;13.43;;;;;;;3.19;66.84;102530.50;2098326;28;20737;-65
2022/03/01 03:58:20;;;;;;;14.97;13.40;;;;;;;2.88;67.31;102505.50;2098240;28;20692;-65
2022/03/01 03:59:20;;;;;;;13.97;12.50;;;;;;;2.88;67.42;102493.75;2098650;28;20199;-65
2022/03/01 04:00:21;;;;;;;14.07;12.13;;;;;;;3.07;67.63;102519.50;2097754;28;20191;-65
2022/03/01 04:01:22;;;;;;;14.10;12.60;;;;;;;3.05;67.92;102526.47;2097874;28;20574;-65
2022/03/01 04:02:22;;;;;;;13.50;11.87;;;;;;;1.83;67.85;102328.31;2098275;28;20198;-65
2022/03/01 04:03:23;;;;;;;14.63;12.57;;;;;;;2.76;68.05;102483.53;2098262;28;20654;-65
2022/03/01 04:04:24;;;;;;;14.47;12.57;;;;;;;2.94;68.31;102514.31;2098200;28;20208;-65
2022/03/01 04:05:24;;;;;;;16.63;14.43;;;;;;;2.98;67.95;102509.78;2098428;28;20560;-65
2022/03/01 04:06:25;;;;;;;16.97;13.13;;;;;;;3.08;68.06;102523.84;2098111;28;20216;-65
2022/03/01 04:07:26;;;;;;;15.20;13.10;;;;;;;3.11;68.16;102520.44;2098212;28;20298;-65
2022/03/01 04:08:27;;;;;;;18.50;12.47;;;;;;;2.43;67.45;102418.94;2098217;28;20637;-65
2022/03/01 04:09:27;;;;;;;15.27;12.80;;;;;;;3.11;67.77;102523.19;2098390;28;20185;-65
2022/03/01 04:10:28;;;;;;;14.57;13.07;;;;;;;3.14;67.52;102524.47;2098003;28;20180;-65
2022/03/01 04:11:29;;;;;;;15.43;12.50;;;;;;;3.14;67.94;102517.03;2097681;28;20192;-65
2022/03/01 04:12:30;;;;;;;14.23;11.73;;;;;;;3.15;67.78;102517.84;2098295;28;20196;-65
2022/03/01 04:13:32;;;;;;;14.18;12.25;;;;;;;2.61;67.50;102425.84;2098115;28;20172;-65
2022/03/01 04:14:33;;;;;;;14.23;12.73;;;;;;;3.06;67.32;102497.94;2098216;28;20211;-65
2022/03/01 04:15:34;;;;;;;15.30;12.60;;;;;;;3.20;67.25;102528.59;2098101;28;20181;-65
2022/03/01 04:16:34;;;;;;;15.30;12.53;;;;;;;2.97;67.75;102491.75;2098182;28;20269;-65
2022/03/01 04:17:35;;;;;;;15.17;13.10;;;;;;;3.15;68.16;102523.31;2098039;28;20602;-65
2022/03/01 04:18:35;;;;;;;15.37;12.77;;;;;;;2.80;67.40;102473.53;2098238;28;20540;-65
2022/03/01 04:19:36;;;;;;;15.33;13.30;;;;;;;2.69;68.00;102464.13;2098049;28;20185;-65
2022/03/01 04:20:37;;;;;;;16.30;12.77;;;;;;;3.04;67.78;102527.63;2097869;28;20619;-65
2022/03/01 04:21:39;;;;;;;14.17;12.40;;;;;;;3.02;68.03;102529.88;2097608;28;20183;-65
2022/03/01 04:22:40;;;;;;;15.27;12.95;;;;;;;2.61;68.09;102455.97;2095206;28;20192;-65
2022/03/01 04:23:41;;;;;;;14.50;13.00;;;;;;;2.95;68.28;102513.19;2098128;28;20184;-65
2022/03/01 04:24:42;;;;;;;14.33;12.83;;;;;;;2.27;67.85;102399.56;2098002;28;20188;-65
2022/03/01 04:25:42;;;;;;;14.27;12.77;;;;;;;3.05;68.29;102521.00;2097947;28;20204;-65
2022/03/01 04:26:43;;;;;;;14.90;13.00;;;;;;;3.00;68.35;102526.66;2098199;28;20329;-65
2022/03/01 04:27:44;;;;;;;18.63;13.00;;;;;;;2.92;68.62;102525.59;2097940;28;20187;-65
2022/03/01 04:28:44;;;;;;;16.67;13.23;;;;;;;2.62;68.06;102474.78;2098117;28;20191;-65
2022/03/01 04:29:45;;;;;;;14.73;13.23;;;;;;;2.88;68.96;102510.97;2096950;28;20183;-66
2022/03/01 04:32:45;;;;;;;15.50;12.77;;;;;;;3.01;67.88;102534.56;2095611;28;20172;-65
2022/03/01 04:33:46;;;;;;;16.38;14.18;;;;;;;2.31;68.35;102419.66;2091581;28;20192;-65
2022/03/01 04:34:47;;;;;;;15.00;13.43;;;;;;;3.07;68.05;102532.41;2093485;28;20226;-65
2022/03/01 04:35:47;;;;;;;18.07;13.43;;;;;;;3.06;68.12;102528.06;2097932;28;20302;-65
2022/03/01 04:36:48;;;;;;;17.90;13.83;;;;;;;3.06;68.58;102531.63;2097984;28;20532;-65
2022/03/01 04:37:49;;;;;;;17.37;13.67;;;;;;;2.88;68.14;102497.28;2095062;28;20282;-65
2022/03/01 04:38:51;;;;;;;17.47;13.93;;;;;;;2.84;68.54;102492.81;2097991;28;20186;-65
2022/03/01 04:39:51;;;;;;;16.60;13.70;;;;;;;3.07;68.08;102535.94;2097521;28;20572;-65
2022/03/01 04:40:52;;;;;;;17.50;14.07;;;;;;;3.16;68.23;102536.69;2098068;28;20212;-65
2022/03/01 04:41:53;;;;;;;16.33;14.32;;;;;;;3.00;67.82;102504.75;2097139;28;20223;-65
2022/03/01 04:42:53;;;;;;;16.83;14.57;;;;;;;2.10;67.99;102383.28;2098064;28;20249;-66
2022/03/01 04:43:54;;;;;;;16.93;14.73;;;;;;;3.08;67.90;102531.28;2097675;28;20190;-65
2022/03/01 04:44:55;;;;;;;15.93;14.23;;;;;;;3.13;68.30;102534.59;2098008;28;20265;-65
2022/03/01 04:45:56;;;;;;;16.70;14.40;;;;;;;3.17;68.52;102523.75;2097843;28;20188;-65
2022/03/01 04:46:57;;;;;;;17.33;15.38;;;;;;;2.42;67.74;102395.44;2095122;28;20270;-65
2022/03/01 04:47:58;;;;;;;19.93;15.73;;;;;;;3.22;68.06;102515.34;2097910;28;20186;-65
2022/03/01 04:48:59;;;;;;;17.38;14.98;;;;;;;2.56;67.89;102424.13;2095808;28;20275;-65
2022/03/01 04:50:00;;;;;;;21.50;16.87;;;;;;;3.24;68.24;102524.81;2097283;28;20249;-65